sensor_id;sensor_type;location;lat;lon;timestamp;temperature;humidity
612;DHT22;293;53.888;11.464;2023-05-23T00:00:05;19.20;99.90
612;DHT22;293;53.888;11.464;2023-05-23T00:02:32;19.20;99.90
612;DHT22;293;53.888;11.464;2023-05-23T00:04:59;19.20;99.90
612;DHT22;293;53.888;11.464;2023-05-23T00:07:28;19.20;99.90
612;DHT22;293;53.888;11.464;2023-05-23T00:09:56;19.20;99.90
612;DHT22;293;53.888;11.464;2023-05-23T00:12:25;19.20;99.90
612;DHT22;293;53.888;11.464;2023-05-23T00:14:52;19.30;99.90
612;DHT22;293;53.888;11.464;2023-05-23T00:17:19;19.30;99.90
612;DHT22;293;53.888;11.464;2023-05-23T00:19:46;19.30;99.90
612;DHT22;293;53.888;11.464;2023-05-23T00:22:13;19.30;99.90
612;DHT22;293;53.888;11.464;2023-05-23T00:24:42;19.30;99.90
612;DHT22;293;53.888;11.464;2023-05-23T00:27:09;19.10;99.90
612;DHT22;293;53.888;11.464;2023-05-23T00:29:37;19.10;99.90
612;DHT22;293;53.888;11.464;2023-05-23T00:32:04;19.10;99.90
612;DHT22;293;53.888;11.464;2023-05-23T00:34:31;19.00;99.90
612;DHT22;293;53.888;11.464;2023-05-23T00:36:58;19.00;99.90
612;DHT22;293;53.888;11.464;2023-05-23T00:39:26;18.90;99.90
612;DHT22;293;53.888;11.464;2023-05-23T00:41:53;18.90;99.90
612;DHT22;293;53.888;11.464;2023-05-23T00:44:20;18.90;99.90
612;DHT22;293;53.888;11.464;2023-05-23T00:46:51;18.80;99.90
612;DHT22;293;53.888;11.464;2023-05-23T00:49:19;18.70;99.90
612;DHT22;293;53.888;11.464;2023-05-23T00:51:46;18.70;99.90
612;DHT22;293;53.888;11.464;2023-05-23T00:54:15;18.70;99.90
612;DHT22;293;53.888;11.464;2023-05-23T00:56:46;18.70;99.90
612;DHT22;293;53.888;11.464;2023-05-23T00:59:14;18.70;99.90
612;DHT22;293;53.888;11.464;2023-05-23T01:01:41;18.60;99.90
612;DHT22;293;53.888;11.464;2023-05-23T01:04:12;18.50;99.90
612;DHT22;293;53.888;11.464;2023-05-23T01:06:41;18.50;99.90
612;DHT22;293;53.888;11.464;2023-05-23T01:09:11;18.40;99.90
612;DHT22;293;53.888;11.464;2023-05-23T01:11:42;18.40;99.90
612;DHT22;293;53.888;11.464;2023-05-23T01:14:16;18.40;99.90
612;DHT22;293;53.888;11.464;2023-05-23T01:16:49;18.30;99.90
612;DHT22;293;53.888;11.464;2023-05-23T01:22:21;18.20;99.90
612;DHT22;293;53.888;11.464;2023-05-23T01:24:54;18.00;99.90
612;DHT22;293;53.888;11.464;2023-05-23T01:27:35;17.90;99.90
612;DHT22;293;53.888;11.464;2023-05-23T01:30:04;17.80;99.90
612;DHT22;293;53.888;11.464;2023-05-23T01:32:32;17.70;99.90
612;DHT22;293;53.888;11.464;2023-05-23T01:35:00;17.80;99.90
612;DHT22;293;53.888;11.464;2023-05-23T01:37:27;17.80;99.90
612;DHT22;293;53.888;11.464;2023-05-23T01:39:54;17.90;99.90
612;DHT22;293;53.888;11.464;2023-05-23T01:42:21;17.90;99.90
612;DHT22;293;53.888;11.464;2023-05-23T01:44:50;17.90;99.90
612;DHT22;293;53.888;11.464;2023-05-23T01:47:17;17.90;99.90
612;DHT22;293;53.888;11.464;2023-05-23T01:49:46;17.70;99.90
612;DHT22;293;53.888;11.464;2023-05-23T01:52:14;17.70;99.90
612;DHT22;293;53.888;11.464;2023-05-23T01:54:41;17.80;99.90
612;DHT22;293;53.888;11.464;2023-05-23T01:57:09;17.80;99.90
612;DHT22;293;53.888;11.464;2023-05-23T01:59:36;17.80;99.90
612;DHT22;293;53.888;11.464;2023-05-23T02:02:05;17.70;99.90
612;DHT22;293;53.888;11.464;2023-05-23T02:04:32;17.70;99.90
612;DHT22;293;53.888;11.464;2023-05-23T02:06:58;17.60;99.90
612;DHT22;293;53.888;11.464;2023-05-23T02:09:25;17.60;99.90
612;DHT22;293;53.888;11.464;2023-05-23T02:11:52;17.70;99.90
612;DHT22;293;53.888;11.464;2023-05-23T02:14:20;17.80;99.90
612;DHT22;293;53.888;11.464;2023-05-23T02:16:47;17.80;99.90
612;DHT22;293;53.888;11.464;2023-05-23T02:19:15;17.70;99.90
612;DHT22;293;53.888;11.464;2023-05-23T02:21:42;17.80;99.90
612;DHT22;293;53.888;11.464;2023-05-23T02:24:09;17.90;99.90
612;DHT22;293;53.888;11.464;2023-05-23T02:26:36;18.00;99.90
612;DHT22;293;53.888;11.464;2023-05-23T02:29:02;18.10;99.90
612;DHT22;293;53.888;11.464;2023-05-23T02:31:30;18.10;99.90
612;DHT22;293;53.888;11.464;2023-05-23T02:33:57;18.10;99.90
612;DHT22;293;53.888;11.464;2023-05-23T02:36:25;18.00;99.90
612;DHT22;293;53.888;11.464;2023-05-23T02:38:52;18.00;99.90
612;DHT22;293;53.888;11.464;2023-05-23T02:41:19;18.00;99.90
612;DHT22;293;53.888;11.464;2023-05-23T02:43:47;18.00;99.90
612;DHT22;293;53.888;11.464;2023-05-23T02:46:14;18.10;99.90
612;DHT22;293;53.888;11.464;2023-05-23T02:48:41;18.10;99.90
612;DHT22;293;53.888;11.464;2023-05-23T02:51:09;18.10;99.90
612;DHT22;293;53.888;11.464;2023-05-23T02:53:37;18.10;99.90
612;DHT22;293;53.888;11.464;2023-05-23T02:56:04;18.00;99.90
612;DHT22;293;53.888;11.464;2023-05-23T02:58:32;17.90;99.90
612;DHT22;293;53.888;11.464;2023-05-23T03:01:00;17.90;99.90
612;DHT22;293;53.888;11.464;2023-05-23T03:03:27;17.90;99.90
612;DHT22;293;53.888;11.464;2023-05-23T03:05:55;17.90;99.90
612;DHT22;293;53.888;11.464;2023-05-23T03:08:22;17.70;99.90
612;DHT22;293;53.888;11.464;2023-05-23T03:10:51;17.60;99.90
612;DHT22;293;53.888;11.464;2023-05-23T03:13:18;17.50;99.90
612;DHT22;293;53.888;11.464;2023-05-23T03:15:45;17.40;99.90
612;DHT22;293;53.888;11.464;2023-05-23T03:18:12;17.40;99.90
612;DHT22;293;53.888;11.464;2023-05-23T03:20:39;17.30;99.90
612;DHT22;293;53.888;11.464;2023-05-23T03:23:06;17.30;99.90
612;DHT22;293;53.888;11.464;2023-05-23T03:25:33;17.20;99.90
612;DHT22;293;53.888;11.464;2023-05-23T03:28:01;17.20;99.90
612;DHT22;293;53.888;11.464;2023-05-23T03:30:28;17.20;99.90
612;DHT22;293;53.888;11.464;2023-05-23T03:32:55;17.10;99.90
612;DHT22;293;53.888;11.464;2023-05-23T03:35:22;17.10;99.90
612;DHT22;293;53.888;11.464;2023-05-23T03:37:49;17.00;99.90
612;DHT22;293;53.888;11.464;2023-05-23T03:40:15;17.00;99.90
612;DHT22;293;53.888;11.464;2023-05-23T03:42:42;16.90;99.90
612;DHT22;293;53.888;11.464;2023-05-23T03:45:10;16.90;99.90
612;DHT22;293;53.888;11.464;2023-05-23T03:47:38;16.80;99.90
612;DHT22;293;53.888;11.464;2023-05-23T03:50:05;16.70;99.90
612;DHT22;293;53.888;11.464;2023-05-23T03:52:32;16.60;99.90
612;DHT22;293;53.888;11.464;2023-05-23T03:54:59;16.60;99.90
612;DHT22;293;53.888;11.464;2023-05-23T03:57:26;16.60;99.90
612;DHT22;293;53.888;11.464;2023-05-23T03:59:53;16.50;99.90
612;DHT22;293;53.888;11.464;2023-05-23T04:02:21;16.50;99.90
612;DHT22;293;53.888;11.464;2023-05-23T04:04:48;16.70;99.90
612;DHT22;293;53.888;11.464;2023-05-23T04:07:16;16.70;99.90
612;DHT22;293;53.888;11.464;2023-05-23T04:09:43;16.90;99.90
612;DHT22;293;53.888;11.464;2023-05-23T04:12:09;16.90;99.90
612;DHT22;293;53.888;11.464;2023-05-23T04:14:36;17.10;99.90
612;DHT22;293;53.888;11.464;2023-05-23T04:17:04;17.20;99.90
612;DHT22;293;53.888;11.464;2023-05-23T04:19:34;17.10;99.90
612;DHT22;293;53.888;11.464;2023-05-23T04:22:01;17.00;99.90
612;DHT22;293;53.888;11.464;2023-05-23T04:24:28;17.00;99.90
612;DHT22;293;53.888;11.464;2023-05-23T04:26:55;16.90;99.90
612;DHT22;293;53.888;11.464;2023-05-23T04:29:23;16.90;99.90
612;DHT22;293;53.888;11.464;2023-05-23T04:31:50;16.80;99.90
612;DHT22;293;53.888;11.464;2023-05-23T04:34:17;16.70;99.90
612;DHT22;293;53.888;11.464;2023-05-23T04:36:48;16.70;99.90
612;DHT22;293;53.888;11.464;2023-05-23T04:39:15;16.70;99.90
612;DHT22;293;53.888;11.464;2023-05-23T04:41:42;16.70;99.90
612;DHT22;293;53.888;11.464;2023-05-23T04:44:09;16.60;99.90
612;DHT22;293;53.888;11.464;2023-05-23T04:46:36;16.60;99.90
612;DHT22;293;53.888;11.464;2023-05-23T04:49:06;16.60;99.90
612;DHT22;293;53.888;11.464;2023-05-23T04:51:33;16.60;99.90
612;DHT22;293;53.888;11.464;2023-05-23T04:54:01;16.70;99.90
612;DHT22;293;53.888;11.464;2023-05-23T04:56:28;16.70;99.90
612;DHT22;293;53.888;11.464;2023-05-23T04:58:56;16.70;99.90
612;DHT22;293;53.888;11.464;2023-05-23T05:01:23;16.70;99.90
612;DHT22;293;53.888;11.464;2023-05-23T05:03:50;16.70;99.90
612;DHT22;293;53.888;11.464;2023-05-23T05:06:17;16.70;99.90
612;DHT22;293;53.888;11.464;2023-05-23T05:08:45;16.60;99.90
612;DHT22;293;53.888;11.464;2023-05-23T05:11:13;16.80;99.90
612;DHT22;293;53.888;11.464;2023-05-23T05:13:41;16.80;99.90
612;DHT22;293;53.888;11.464;2023-05-23T05:16:07;16.90;99.90
612;DHT22;293;53.888;11.464;2023-05-23T05:18:34;16.90;99.90
612;DHT22;293;53.888;11.464;2023-05-23T05:21:01;16.90;99.90
612;DHT22;293;53.888;11.464;2023-05-23T05:23:30;17.00;99.90
612;DHT22;293;53.888;11.464;2023-05-23T05:25:57;17.00;99.90
612;DHT22;293;53.888;11.464;2023-05-23T05:28:26;17.00;99.90
612;DHT22;293;53.888;11.464;2023-05-23T05:30:53;17.10;99.90
612;DHT22;293;53.888;11.464;2023-05-23T05:33:20;17.10;99.90
612;DHT22;293;53.888;11.464;2023-05-23T05:35:48;17.10;99.90
612;DHT22;293;53.888;11.464;2023-05-23T05:38:15;17.10;99.90
612;DHT22;293;53.888;11.464;2023-05-23T05:40:42;17.20;99.90
612;DHT22;293;53.888;11.464;2023-05-23T05:43:09;17.10;99.90
612;DHT22;293;53.888;11.464;2023-05-23T05:45:37;17.20;99.90
612;DHT22;293;53.888;11.464;2023-05-23T05:48:04;17.30;99.90
612;DHT22;293;53.888;11.464;2023-05-23T05:50:32;17.30;99.90
612;DHT22;293;53.888;11.464;2023-05-23T05:52:59;17.40;99.90
612;DHT22;293;53.888;11.464;2023-05-23T05:55:25;17.40;99.90
612;DHT22;293;53.888;11.464;2023-05-23T05:57:52;17.40;99.90
612;DHT22;293;53.888;11.464;2023-05-23T06:00:20;17.50;99.90
612;DHT22;293;53.888;11.464;2023-05-23T06:02:48;17.50;99.90
612;DHT22;293;53.888;11.464;2023-05-23T06:05:16;17.50;99.90
612;DHT22;293;53.888;11.464;2023-05-23T06:07:43;17.60;99.90
612;DHT22;293;53.888;11.464;2023-05-23T06:10:10;17.60;99.90
612;DHT22;293;53.888;11.464;2023-05-23T06:12:38;17.60;99.90
612;DHT22;293;53.888;11.464;2023-05-23T06:15:06;17.60;99.90
612;DHT22;293;53.888;11.464;2023-05-23T06:17:33;17.60;99.90
612;DHT22;293;53.888;11.464;2023-05-23T06:20:02;17.50;99.90
612;DHT22;293;53.888;11.464;2023-05-23T06:22:29;17.60;99.90
612;DHT22;293;53.888;11.464;2023-05-23T06:24:56;17.60;99.90
612;DHT22;293;53.888;11.464;2023-05-23T06:27:23;17.70;99.90
612;DHT22;293;53.888;11.464;2023-05-23T06:29:50;17.80;99.90
612;DHT22;293;53.888;11.464;2023-05-23T06:32:17;17.90;99.90
612;DHT22;293;53.888;11.464;2023-05-23T06:34:44;18.00;99.90
612;DHT22;293;53.888;11.464;2023-05-23T06:37:12;18.10;99.90
612;DHT22;293;53.888;11.464;2023-05-23T06:39:39;18.10;99.90
612;DHT22;293;53.888;11.464;2023-05-23T06:42:06;18.20;99.90
612;DHT22;293;53.888;11.464;2023-05-23T06:44:33;18.20;99.90
612;DHT22;293;53.888;11.464;2023-05-23T06:47:00;18.30;99.90
612;DHT22;293;53.888;11.464;2023-05-23T06:49:27;18.30;99.90
612;DHT22;293;53.888;11.464;2023-05-23T06:51:54;18.40;99.90
612;DHT22;293;53.888;11.464;2023-05-23T06:54:22;18.40;99.90
612;DHT22;293;53.888;11.464;2023-05-23T06:56:49;18.70;99.90
612;DHT22;293;53.888;11.464;2023-05-23T06:59:16;18.30;99.90
612;DHT22;293;53.888;11.464;2023-05-23T07:01:43;18.20;99.90
612;DHT22;293;53.888;11.464;2023-05-23T07:04:10;18.10;99.90
612;DHT22;293;53.888;11.464;2023-05-23T07:06:38;18.20;99.90
612;DHT22;293;53.888;11.464;2023-05-23T07:09:05;18.20;99.90
612;DHT22;293;53.888;11.464;2023-05-23T07:11:33;18.30;99.90
612;DHT22;293;53.888;11.464;2023-05-23T07:14:01;18.20;99.90
612;DHT22;293;53.888;11.464;2023-05-23T07:16:28;18.30;99.90
612;DHT22;293;53.888;11.464;2023-05-23T07:18:55;18.40;99.90
612;DHT22;293;53.888;11.464;2023-05-23T07:21:22;18.40;99.90
612;DHT22;293;53.888;11.464;2023-05-23T07:23:49;18.40;99.90
612;DHT22;293;53.888;11.464;2023-05-23T07:26:15;18.50;99.90
612;DHT22;293;53.888;11.464;2023-05-23T07:28:44;18.60;99.90
612;DHT22;293;53.888;11.464;2023-05-23T07:31:11;18.60;99.90
612;DHT22;293;53.888;11.464;2023-05-23T07:33:37;18.60;99.90
612;DHT22;293;53.888;11.464;2023-05-23T07:36:05;18.40;99.90
612;DHT22;293;53.888;11.464;2023-05-23T07:38:31;18.30;99.90
612;DHT22;293;53.888;11.464;2023-05-23T07:40:58;18.20;99.90
612;DHT22;293;53.888;11.464;2023-05-23T07:43:25;18.20;99.90
612;DHT22;293;53.888;11.464;2023-05-23T07:45:53;18.10;99.90
612;DHT22;293;53.888;11.464;2023-05-23T07:48:20;18.00;99.90
612;DHT22;293;53.888;11.464;2023-05-23T07:50:47;18.00;99.90
612;DHT22;293;53.888;11.464;2023-05-23T07:53:14;17.90;99.90
612;DHT22;293;53.888;11.464;2023-05-23T07:55:41;17.90;99.90
612;DHT22;293;53.888;11.464;2023-05-23T07:58:08;17.90;99.90
612;DHT22;293;53.888;11.464;2023-05-23T08:00:35;17.90;99.90
612;DHT22;293;53.888;11.464;2023-05-23T08:03:04;17.80;99.90
612;DHT22;293;53.888;11.464;2023-05-23T08:05:31;17.90;99.90
612;DHT22;293;53.888;11.464;2023-05-23T08:07:58;18.00;99.90
612;DHT22;293;53.888;11.464;2023-05-23T08:10:25;18.10;99.90
612;DHT22;293;53.888;11.464;2023-05-23T08:12:53;18.20;99.90
612;DHT22;293;53.888;11.464;2023-05-23T08:15:20;18.30;99.90
612;DHT22;293;53.888;11.464;2023-05-23T08:17:48;18.30;99.90
612;DHT22;293;53.888;11.464;2023-05-23T08:20:16;18.20;99.90
612;DHT22;293;53.888;11.464;2023-05-23T08:22:43;18.00;99.90
612;DHT22;293;53.888;11.464;2023-05-23T08:25:10;17.80;99.90
612;DHT22;293;53.888;11.464;2023-05-23T08:27:36;17.70;99.90
612;DHT22;293;53.888;11.464;2023-05-23T08:30:04;17.40;99.90
612;DHT22;293;53.888;11.464;2023-05-23T08:32:34;17.00;99.90
612;DHT22;293;53.888;11.464;2023-05-23T08:35:01;16.80;99.90
612;DHT22;293;53.888;11.464;2023-05-23T08:37:29;16.70;99.90
612;DHT22;293;53.888;11.464;2023-05-23T08:39:56;16.50;99.90
612;DHT22;293;53.888;11.464;2023-05-23T08:42:23;16.40;99.90
612;DHT22;293;53.888;11.464;2023-05-23T08:44:50;16.30;99.90
612;DHT22;293;53.888;11.464;2023-05-23T08:47:18;16.20;99.90
612;DHT22;293;53.888;11.464;2023-05-23T08:49:46;16.20;99.90
612;DHT22;293;53.888;11.464;2023-05-23T08:52:17;16.10;99.90
612;DHT22;293;53.888;11.464;2023-05-23T08:54:49;16.00;99.90
612;DHT22;293;53.888;11.464;2023-05-23T08:57:17;16.00;99.90
612;DHT22;293;53.888;11.464;2023-05-23T08:59:44;16.10;99.90
612;DHT22;293;53.888;11.464;2023-05-23T09:02:13;16.20;99.90
612;DHT22;293;53.888;11.464;2023-05-23T09:04:40;16.20;99.90
612;DHT22;293;53.888;11.464;2023-05-23T09:07:09;16.30;99.90
612;DHT22;293;53.888;11.464;2023-05-23T09:09:37;16.20;99.90
612;DHT22;293;53.888;11.464;2023-05-23T09:12:06;16.30;99.90
612;DHT22;293;53.888;11.464;2023-05-23T09:14:32;16.30;99.90
612;DHT22;293;53.888;11.464;2023-05-23T09:17:02;16.30;99.90
612;DHT22;293;53.888;11.464;2023-05-23T09:19:29;16.50;99.90
612;DHT22;293;53.888;11.464;2023-05-23T09:21:55;16.60;99.90
612;DHT22;293;53.888;11.464;2023-05-23T09:24:22;16.60;99.90
612;DHT22;293;53.888;11.464;2023-05-23T09:26:49;16.60;99.90
612;DHT22;293;53.888;11.464;2023-05-23T09:29:20;16.70;99.90
612;DHT22;293;53.888;11.464;2023-05-23T09:31:47;16.90;99.90
612;DHT22;293;53.888;11.464;2023-05-23T09:34:14;16.80;99.90
612;DHT22;293;53.888;11.464;2023-05-23T09:36:41;16.80;99.90
612;DHT22;293;53.888;11.464;2023-05-23T09:39:10;16.80;99.90
612;DHT22;293;53.888;11.464;2023-05-23T09:41:37;16.70;99.90
612;DHT22;293;53.888;11.464;2023-05-23T09:44:05;16.70;99.90
612;DHT22;293;53.888;11.464;2023-05-23T09:46:36;16.70;99.90
612;DHT22;293;53.888;11.464;2023-05-23T09:49:14;16.70;99.90
612;DHT22;293;53.888;11.464;2023-05-23T09:51:42;17.00;99.90
612;DHT22;293;53.888;11.464;2023-05-23T09:54:09;17.00;99.90
612;DHT22;293;53.888;11.464;2023-05-23T09:56:39;17.10;99.90
612;DHT22;293;53.888;11.464;2023-05-23T09:59:10;17.30;99.90
612;DHT22;293;53.888;11.464;2023-05-23T10:01:42;17.30;99.90
612;DHT22;293;53.888;11.464;2023-05-23T10:04:11;17.30;99.90
612;DHT22;293;53.888;11.464;2023-05-23T10:06:40;17.40;99.90
612;DHT22;293;53.888;11.464;2023-05-23T10:09:12;17.40;99.90
612;DHT22;293;53.888;11.464;2023-05-23T10:15:13;17.40;99.90
612;DHT22;293;53.888;11.464;2023-05-23T10:18:00;17.50;99.90
612;DHT22;293;53.888;11.464;2023-05-23T10:20:29;17.20;99.90
612;DHT22;293;53.888;11.464;2023-05-23T10:22:58;17.00;99.90
612;DHT22;293;53.888;11.464;2023-05-23T10:25:25;17.30;99.90
612;DHT22;293;53.888;11.464;2023-05-23T10:27:54;16.90;99.90
612;DHT22;293;53.888;11.464;2023-05-23T10:30:25;16.80;99.90
612;DHT22;293;53.888;11.464;2023-05-23T10:32:53;16.90;99.90
612;DHT22;293;53.888;11.464;2023-05-23T10:35:27;16.90;99.90
612;DHT22;293;53.888;11.464;2023-05-23T10:38:03;17.00;99.90
612;DHT22;293;53.888;11.464;2023-05-23T10:40:42;17.00;99.90
612;DHT22;293;53.888;11.464;2023-05-23T10:43:17;17.00;99.90
612;DHT22;293;53.888;11.464;2023-05-23T10:45:46;17.10;99.90
612;DHT22;293;53.888;11.464;2023-05-23T10:48:30;17.10;99.90
612;DHT22;293;53.888;11.464;2023-05-23T10:51:04;16.70;99.90
612;DHT22;293;53.888;11.464;2023-05-23T10:53:33;16.60;99.90
612;DHT22;293;53.888;11.464;2023-05-23T10:56:00;16.50;99.90
612;DHT22;293;53.888;11.464;2023-05-23T10:58:29;16.50;99.90
612;DHT22;293;53.888;11.464;2023-05-23T11:00:59;16.30;99.90
612;DHT22;293;53.888;11.464;2023-05-23T11:03:35;16.30;99.90
612;DHT22;293;53.888;11.464;2023-05-23T11:06:03;16.10;99.90
612;DHT22;293;53.888;11.464;2023-05-23T11:08:37;16.10;99.90
612;DHT22;293;53.888;11.464;2023-05-23T11:11:05;15.90;99.90
612;DHT22;293;53.888;11.464;2023-05-23T11:13:54;15.70;99.90
612;DHT22;293;53.888;11.464;2023-05-23T11:16:25;15.70;99.90
612;DHT22;293;53.888;11.464;2023-05-23T11:19:24;15.70;99.90
612;DHT22;293;53.888;11.464;2023-05-23T11:21:53;15.70;99.90
612;DHT22;293;53.888;11.464;2023-05-23T11:24:21;15.70;99.90
612;DHT22;293;53.888;11.464;2023-05-23T11:26:52;15.60;99.90
612;DHT22;293;53.888;11.464;2023-05-23T11:29:19;15.50;99.90
612;DHT22;293;53.888;11.464;2023-05-23T11:31:46;15.50;99.90
612;DHT22;293;53.888;11.464;2023-05-23T11:34:15;15.40;99.90
612;DHT22;293;53.888;11.464;2023-05-23T11:36:43;15.30;99.90
612;DHT22;293;53.888;11.464;2023-05-23T11:39:11;15.20;99.90
612;DHT22;293;53.888;11.464;2023-05-23T11:41:40;14.90;99.90
612;DHT22;293;53.888;11.464;2023-05-23T11:44:11;14.80;99.90
612;DHT22;293;53.888;11.464;2023-05-23T11:46:38;14.80;99.90
612;DHT22;293;53.888;11.464;2023-05-23T11:49:10;14.80;99.90
612;DHT22;293;53.888;11.464;2023-05-23T11:51:39;14.80;99.90
612;DHT22;293;53.888;11.464;2023-05-23T11:54:06;14.70;99.90
612;DHT22;293;53.888;11.464;2023-05-23T11:56:38;14.50;99.90
612;DHT22;293;53.888;11.464;2023-05-23T11:59:06;14.30;99.90
612;DHT22;293;53.888;11.464;2023-05-23T12:01:36;14.20;99.90
612;DHT22;293;53.888;11.464;2023-05-23T12:04:09;14.10;99.90
612;DHT22;293;53.888;11.464;2023-05-23T12:06:39;14.10;99.90
612;DHT22;293;53.888;11.464;2023-05-23T12:09:07;14.00;99.90
612;DHT22;293;53.888;11.464;2023-05-23T12:11:36;14.00;99.90
612;DHT22;293;53.888;11.464;2023-05-23T12:14:03;14.10;99.90
612;DHT22;293;53.888;11.464;2023-05-23T12:16:31;14.10;99.90
612;DHT22;293;53.888;11.464;2023-05-23T12:18:59;14.10;99.90
612;DHT22;293;53.888;11.464;2023-05-23T12:21:32;14.10;99.90
612;DHT22;293;53.888;11.464;2023-05-23T12:24:15;13.90;99.90
612;DHT22;293;53.888;11.464;2023-05-23T12:26:49;13.90;99.90
612;DHT22;293;53.888;11.464;2023-05-23T12:29:20;13.90;99.90
612;DHT22;293;53.888;11.464;2023-05-23T12:31:48;13.80;99.90
612;DHT22;293;53.888;11.464;2023-05-23T12:34:16;13.80;99.90
612;DHT22;293;53.888;11.464;2023-05-23T12:36:42;13.80;99.90
612;DHT22;293;53.888;11.464;2023-05-23T12:39:11;13.70;99.90
612;DHT22;293;53.888;11.464;2023-05-23T12:41:40;13.50;99.90
612;DHT22;293;53.888;11.464;2023-05-23T12:44:08;13.50;99.90
612;DHT22;293;53.888;11.464;2023-05-23T12:46:34;13.40;99.90
612;DHT22;293;53.888;11.464;2023-05-23T12:49:01;13.30;99.90
612;DHT22;293;53.888;11.464;2023-05-23T12:51:28;13.30;99.90
612;DHT22;293;53.888;11.464;2023-05-23T12:53:56;13.30;99.90
612;DHT22;293;53.888;11.464;2023-05-23T12:56:25;13.20;99.90
612;DHT22;293;53.888;11.464;2023-05-23T12:58:52;13.20;99.90
612;DHT22;293;53.888;11.464;2023-05-23T13:01:20;13.20;99.90
612;DHT22;293;53.888;11.464;2023-05-23T13:03:47;13.20;99.90
612;DHT22;293;53.888;11.464;2023-05-23T13:06:14;13.20;99.90
612;DHT22;293;53.888;11.464;2023-05-23T13:08:41;13.10;99.90
612;DHT22;293;53.888;11.464;2023-05-23T13:11:08;13.10;99.90
612;DHT22;293;53.888;11.464;2023-05-23T13:13:37;13.20;99.90
612;DHT22;293;53.888;11.464;2023-05-23T13:16:04;13.10;99.90
612;DHT22;293;53.888;11.464;2023-05-23T13:18:31;13.10;99.90
612;DHT22;293;53.888;11.464;2023-05-23T13:20:58;13.10;99.90
612;DHT22;293;53.888;11.464;2023-05-23T13:23:25;13.20;99.90
612;DHT22;293;53.888;11.464;2023-05-23T13:25:52;13.20;99.90
612;DHT22;293;53.888;11.464;2023-05-23T13:28:19;13.10;99.90
612;DHT22;293;53.888;11.464;2023-05-23T13:30:47;13.10;99.90
612;DHT22;293;53.888;11.464;2023-05-23T13:33:14;13.20;99.90
612;DHT22;293;53.888;11.464;2023-05-23T13:35:40;13.30;99.90
612;DHT22;293;53.888;11.464;2023-05-23T13:38:08;13.30;99.90
612;DHT22;293;53.888;11.464;2023-05-23T13:40:36;13.50;99.90
612;DHT22;293;53.888;11.464;2023-05-23T13:43:02;13.50;99.90
612;DHT22;293;53.888;11.464;2023-05-23T13:45:29;13.50;99.90
612;DHT22;293;53.888;11.464;2023-05-23T13:47:59;13.70;99.90
612;DHT22;293;53.888;11.464;2023-05-23T13:50:26;13.80;99.90
612;DHT22;293;53.888;11.464;2023-05-23T13:52:53;14.00;99.90
612;DHT22;293;53.888;11.464;2023-05-23T13:55:20;14.20;99.90
612;DHT22;293;53.888;11.464;2023-05-23T13:57:47;14.40;99.90
612;DHT22;293;53.888;11.464;2023-05-23T14:00:15;14.60;99.90
612;DHT22;293;53.888;11.464;2023-05-23T14:02:41;14.90;99.90
612;DHT22;293;53.888;11.464;2023-05-23T14:05:10;15.00;99.90
612;DHT22;293;53.888;11.464;2023-05-23T14:07:37;15.20;99.90
612;DHT22;293;53.888;11.464;2023-05-23T14:10:04;15.30;99.90
612;DHT22;293;53.888;11.464;2023-05-23T14:12:33;15.40;99.90
612;DHT22;293;53.888;11.464;2023-05-23T14:15:00;15.40;99.90
612;DHT22;293;53.888;11.464;2023-05-23T14:17:27;15.50;99.90
612;DHT22;293;53.888;11.464;2023-05-23T14:19:54;15.60;99.90
612;DHT22;293;53.888;11.464;2023-05-23T14:22:22;15.70;99.90
612;DHT22;293;53.888;11.464;2023-05-23T14:24:49;15.90;99.90
612;DHT22;293;53.888;11.464;2023-05-23T14:27:16;16.00;99.90
612;DHT22;293;53.888;11.464;2023-05-23T14:29:43;16.00;99.90
612;DHT22;293;53.888;11.464;2023-05-23T14:32:11;16.00;99.90
612;DHT22;293;53.888;11.464;2023-05-23T14:34:38;16.20;99.90
612;DHT22;293;53.888;11.464;2023-05-23T14:37:05;16.10;99.90
612;DHT22;293;53.888;11.464;2023-05-23T14:39:33;16.10;99.90
612;DHT22;293;53.888;11.464;2023-05-23T14:42:00;16.10;99.90
612;DHT22;293;53.888;11.464;2023-05-23T14:44:27;16.00;99.90
612;DHT22;293;53.888;11.464;2023-05-23T14:46:54;16.00;99.90
612;DHT22;293;53.888;11.464;2023-05-23T14:49:21;16.00;99.90
612;DHT22;293;53.888;11.464;2023-05-23T14:51:48;16.10;99.90
612;DHT22;293;53.888;11.464;2023-05-23T14:54:15;16.10;99.90
612;DHT22;293;53.888;11.464;2023-05-23T14:56:43;16.20;99.90
612;DHT22;293;53.888;11.464;2023-05-23T14:59:10;16.30;99.90
612;DHT22;293;53.888;11.464;2023-05-23T15:01:37;16.50;99.90
612;DHT22;293;53.888;11.464;2023-05-23T15:04:04;16.60;99.90
612;DHT22;293;53.888;11.464;2023-05-23T15:06:33;16.50;99.90
612;DHT22;293;53.888;11.464;2023-05-23T15:09:00;16.40;99.90
612;DHT22;293;53.888;11.464;2023-05-23T15:11:27;16.40;99.90
612;DHT22;293;53.888;11.464;2023-05-23T15:13:55;16.40;99.90
612;DHT22;293;53.888;11.464;2023-05-23T15:16:24;16.40;99.90
612;DHT22;293;53.888;11.464;2023-05-23T15:18:50;16.30;99.90
612;DHT22;293;53.888;11.464;2023-05-23T15:21:17;16.30;99.90
612;DHT22;293;53.888;11.464;2023-05-23T15:23:44;16.20;99.90
612;DHT22;293;53.888;11.464;2023-05-23T15:26:11;16.10;99.90
612;DHT22;293;53.888;11.464;2023-05-23T15:28:38;16.00;99.90
612;DHT22;293;53.888;11.464;2023-05-23T15:31:06;16.00;99.90
612;DHT22;293;53.888;11.464;2023-05-23T15:33:33;15.90;99.90
612;DHT22;293;53.888;11.464;2023-05-23T15:36:00;15.90;99.90
612;DHT22;293;53.888;11.464;2023-05-23T15:38:27;15.80;99.90
612;DHT22;293;53.888;11.464;2023-05-23T15:40:54;15.80;99.90
612;DHT22;293;53.888;11.464;2023-05-23T15:43:23;15.70;99.60
612;DHT22;293;53.888;11.464;2023-05-23T15:45:51;15.70;99.90
612;DHT22;293;53.888;11.464;2023-05-23T15:48:19;15.70;99.30
612;DHT22;293;53.888;11.464;2023-05-23T15:50:46;15.80;99.60
612;DHT22;293;53.888;11.464;2023-05-23T15:53:13;16.00;99.80
612;DHT22;293;53.888;11.464;2023-05-23T15:55:40;16.00;98.60
612;DHT22;293;53.888;11.464;2023-05-23T15:58:07;16.10;97.90
612;DHT22;293;53.888;11.464;2023-05-23T16:00:34;16.20;98.10
612;DHT22;293;53.888;11.464;2023-05-23T16:03:01;16.20;98.40
612;DHT22;293;53.888;11.464;2023-05-23T16:05:29;16.30;98.60
612;DHT22;293;53.888;11.464;2023-05-23T16:07:56;16.40;99.00
612;DHT22;293;53.888;11.464;2023-05-23T16:10:23;16.40;99.20
612;DHT22;293;53.888;11.464;2023-05-23T16:12:50;16.30;99.30
612;DHT22;293;53.888;11.464;2023-05-23T16:15:17;16.30;99.90
612;DHT22;293;53.888;11.464;2023-05-23T16:17:44;16.10;99.90
612;DHT22;293;53.888;11.464;2023-05-23T16:20:11;15.90;99.70
612;DHT22;293;53.888;11.464;2023-05-23T16:22:40;15.90;99.70
612;DHT22;293;53.888;11.464;2023-05-23T16:25:08;15.80;99.40
612;DHT22;293;53.888;11.464;2023-05-23T16:27:35;15.70;98.70